Djumu-Djomoe Airport


Codes: GY-DOE/DOE
Name: Djumu-Djomoe Airport
City: Djumu-Djomoe
Country: Suriname
Elevation: 290 ft.
Wikipedia:

Photos at Djumu-Djomoe Airport


   Photos courtesy of SpottingLog. You can add your own sightings and photos by signing up for a free trial today.



No photos found.

Weather at Djumu-Djomoe Airport


Time (UTC)DescriptionTempratureWindCloud coverageVisibilityPressureHumidity
13-Jun-2024 00:00Moderate Rain24°C2 mph, NE92%6323m1013hPa99%
13-Jun-2024 03:00Moderate Rain23°C2 mph, NE95%2634m1013hPa100%
13-Jun-2024 06:00Heavy Intensity Rain23°C2 mph, E97%574m1012hPa100%
13-Jun-2024 09:00Moderate Rain23°C0 mph, SE100%10000m1012hPa100%
13-Jun-2024 12:00Light Rain25°C2 mph, SE99%10000m1014hPa94%
13-Jun-2024 15:00Light Rain30°C2 mph, SE84%10000m1012hPa59%
13-Jun-2024 18:00Light Rain29°C2 mph, NE93%10000m1010hPa72%
13-Jun-2024 21:00Light Rain26°C2 mph, NE95%10000m1010hPa89%
14-Jun-2024 00:00Light Rain23°C2 mph, NE98%10000m1013hPa98%
14-Jun-2024 03:00Light Rain22°C2 mph, E70%10000m1013hPa99%
14-Jun-2024 06:00Broken Clouds22°C2 mph, E84%10000m1011hPa99%
14-Jun-2024 09:00Broken Clouds22°C0 mph, SE74%10000m1012hPa99%
14-Jun-2024 12:00Broken Clouds25°C4 mph, SE80%10000m1014hPa86%
14-Jun-2024 15:00Light Rain29°C7 mph, E65%10000m1013hPa65%
14-Jun-2024 18:00Light Rain29°C4 mph, E72%10000m1011hPa75%
14-Jun-2024 21:00Moderate Rain25°C4 mph, E100%8730m1011hPa98%
15-Jun-2024 00:00Light Rain23°C2 mph, E100%10000m1013hPa99%
15-Jun-2024 03:00Light Rain23°C2 mph, E100%10000m1014hPa99%
15-Jun-2024 06:00Light Rain22°C0 mph, SE100%10000m1012hPa99%
15-Jun-2024 09:00Light Rain22°C2 mph, NE100%10000m1013hPa99%
15-Jun-2024 12:00Overcast Clouds25°C2 mph, E92%10000m1015hPa91%
15-Jun-2024 15:00Light Rain30°C4 mph, SE92%10000m1014hPa62%
15-Jun-2024 18:00Light Rain28°C2 mph, E88%10000m1012hPa75%
15-Jun-2024 21:00Light Rain25°C2 mph, NE97%10000m1012hPa97%
16-Jun-2024 00:00Light Rain23°C2 mph, NE99%10000m1014hPa98%
16-Jun-2024 03:00Light Rain22°C2 mph, NE98%10000m1014hPa99%
16-Jun-2024 06:00Overcast Clouds22°C0 mph, E97%10000m1012hPa100%
16-Jun-2024 09:00Broken Clouds21°C2 mph, E51%10000m1013hPa99%
16-Jun-2024 12:00Scattered Clouds25°C2 mph, E47%10000m1014hPa91%
16-Jun-2024 15:00Light Rain30°C2 mph, E44%10000m1013hPa60%
16-Jun-2024 18:00Light Rain28°C2 mph, NE70%10000m1010hPa81%
16-Jun-2024 21:00Light Rain26°C2 mph, NE56%10000m1011hPa96%
17-Jun-2024 00:00Light Rain23°C2 mph, NE37%10000m1012hPa99%
17-Jun-2024 03:00Light Rain22°C2 mph, NE73%10000m1013hPa99%
17-Jun-2024 06:00Broken Clouds22°C0 mph, SE70%10000m1011hPa99%
17-Jun-2024 09:00Broken Clouds21°C0 mph, S53%10000m1011hPa99%
17-Jun-2024 12:00Broken Clouds24°C2 mph, E75%10000m1013hPa91%
17-Jun-2024 15:00Overcast Clouds31°C2 mph, E100%10000m1011hPa52%
17-Jun-2024 18:00Overcast Clouds32°C2 mph, E96%10000m1009hPa47%
17-Jun-2024 21:00Overcast Clouds26°C2 mph, NE100%10000m1008hPa81%